Summary for KCOGRAND2

Redlands, Southcamp Road & Dakota Circle, Grand Junction, CO 81507
Join the PWSweather.com Network
View data in metric units
Latest Conditions
Updated 10:51:50 PM MST Wednesday, Dec 17, 2014
Data Currently Today's Max Today's Min Today's Average
Temperature 36.5°F2.5°C 39.4°F4.1°C 31.6°F-0.2°C 35.6°F2.0°C
Dew Point 35.8°F2.1°C 36.0°F2.2°C 22.1°F-5.5°C 30.9°F-0.6°C
Winds Calm Calm 6.0 mph N9.7 kmh N CalmCalm 1.8 mph2.9 kmh
Wind Gusts -- 9.2 mph14.8 kmh -- 3.7 mph6.0 kmh
Humidity 97% 97% 56% 84%
Pressure 25.07 in849.0 mb 25.07 in849.0 mb 24.98 in845.9 mb 25.03 in847.6 mb
Precipitation 0.00 in0.0 mm - - 0.00 in0.0 mm
Trends
 
Station Profile
Redlands, Southcamp Road & Dakota CircleGrand Junction, CO 81507

Lat: 39.055, Lon: -108.637
Elevation: 4870
Station Type: RadioShack WX200

Detailed Summary for Wed, Dec 17, 2014
Hour (MST) Temperature Dew Point Humidity Winds Wind Gusts Pressure Precip Precip Rate Daily Precip Total
10:51 PM 36.5°F2.5°C 35.8°F2.1°C 97% Calm Calm -- 25.07 in849.0 mb 0.00 in0.0 mm 0.00 in/hr0.0 mm/hr 0.00 in0.0 mm
10:46 PM 36.5°F2.5°C 35.4°F1.9°C 96% Calm Calm -- 25.07 in849.0 mb 0.00 in0.0 mm 0.00 in/hr0.0 mm/hr 0.00 in0.0 mm
10:41 PM 36.5°F2.5°C 35.4°F1.9°C 96% Calm Calm -- 25.07 in849.0 mb 0.00 in0.0 mm 0.00 in/hr0.0 mm/hr 0.00 in0.0 mm
10:36 PM 36.7°F2.6°C 35.6°F2.0°C 96% Calm Calm -- 25.07 in849.0 mb 0.00 in0.0 mm 0.00 in/hr0.0 mm/hr 0.00 in0.0 mm
10:31 PM 36.7°F2.6°C 35.6°F2.0°C 96% Calm Calm -- 25.07 in849.0 mb 0.00 in0.0 mm 0.00 in/hr0.0 mm/hr 0.00 in0.0 mm
10:26 PM 36.7°F2.6°C 35.6°F2.0°C 96% Calm Calm -- 25.07 in849.0 mb 0.00 in0.0 mm 0.00 in/hr0.0 mm/hr 0.00 in0.0 mm
10:21 PM 36.7°F2.6°C 35.6°F2.0°C 96% Calm Calm -- 25.07 in849.0 mb 0.00 in0.0 mm 0.00 in/hr0.0 mm/hr 0.00 in0.0 mm
10:16 PM 36.7°F2.6°C 35.6°F2.0°C 96% Calm Calm -- 25.07 in849.0 mb 0.00 in0.0 mm 0.00 in/hr0.0 mm/hr 0.00 in0.0 mm
10:11 PM 36.7°F2.6°C 35.6°F2.0°C 96% Calm Calm -- 25.07 in849.0 mb 0.00 in0.0 mm 0.00 in/hr0.0 mm/hr 0.00 in0.0 mm
10:06 PM 36.7°F2.6°C 35.6°F2.0°C 96% Calm Calm -- 25.04 in848.0 mb 0.00 in0.0 mm 0.00 in/hr0.0 mm/hr 0.00 in0.0 mm
10:01 PM 36.5°F2.5°C 35.4°F1.9°C 96% Calm Calm -- 25.04 in848.0 mb 0.00 in0.0 mm 0.00 in/hr0.0 mm/hr 0.00 in0.0 mm
09:56 PM 36.7°F2.6°C 35.6°F2.0°C 96% Calm Calm -- 25.04 in848.0 mb 0.00 in0.0 mm 0.00 in/hr0.0 mm/hr 0.00 in0.0 mm
09:51 PM 36.5°F2.5°C 35.4°F1.9°C 96% Calm Calm -- 25.04 in848.0 mb 0.00 in0.0 mm 0.00 in/hr0.0 mm/hr 0.00 in0.0 mm
09:46 PM 36.7°F2.6°C 36.0°F2.2°C 97% Calm Calm -- 25.04 in848.0 mb 0.00 in0.0 mm 0.00 in/hr0.0 mm/hr 0.00 in0.0 mm
09:41 PM 36.5°F2.5°C 35.8°F2.1°C 97% Calm Calm 3.1 mph5.0 kmh 25.04 in848.0 mb 0.00 in0.0 mm 0.00 in/hr0.0 mm/hr 0.00 in0.0 mm
09:36 PM 36.5°F2.5°C 35.8°F2.1°C 97% Calm Calm -- 25.04 in848.0 mb 0.00 in0.0 mm 0.00 in/hr0.0 mm/hr 0.00 in0.0 mm
09:31 PM 36.5°F2.5°C 35.8°F2.1°C 97% Calm Calm -- 25.04 in848.0 mb 0.00 in0.0 mm 0.00 in/hr0.0 mm/hr 0.00 in0.0 mm
09:26 PM 36.5°F2.5°C 35.8°F2.1°C 97% Calm Calm -- 25.04 in848.0 mb 0.00 in0.0 mm 0.00 in/hr0.0 mm/hr 0.00 in0.0 mm
09:21 PM 36.7°F2.6°C 36.0°F2.2°C 97% Calm Calm -- 25.04 in848.0 mb 0.00 in0.0 mm 0.00 in/hr0.0 mm/hr 0.00 in0.0 mm
09:16 PM 36.7°F2.6°C 36.0°F2.2°C 97% Calm Calm 3.1 mph5.0 kmh 25.04 in848.0 mb 0.00 in0.0 mm 0.00 in/hr0.0 mm/hr 0.00 in0.0 mm
09:11 PM 36.7°F2.6°C 36.0°F2.2°C 97% 1.0 mph WSW1.6 kmh WSW 3.1 mph5.0 kmh 25.04 in848.0 mb 0.00 in0.0 mm 0.00 in/hr0.0 mm/hr 0.00 in0.0 mm
09:06 PM 36.7°F2.6°C 36.0°F2.2°C 97% 2.0 mph WSW3.2 kmh WSW 3.6 mph5.8 kmh 25.04 in848.0 mb 0.00 in0.0 mm 0.00 in/hr0.0 mm/hr 0.00 in0.0 mm
09:01 PM 36.7°F2.6°C 35.6°F2.0°C 96% 2.0 mph WSW3.2 kmh WSW 3.6 mph5.8 kmh 25.04 in848.0 mb 0.00 in0.0 mm 0.00 in/hr0.0 mm/hr 0.00 in0.0 mm
08:56 PM 36.7°F2.6°C 35.6°F2.0°C 96% 2.0 mph WSW3.2 kmh WSW 3.6 mph5.8 kmh 25.04 in848.0 mb 0.00 in0.0 mm 0.00 in/hr0.0 mm/hr 0.00 in0.0 mm
08:51 PM 36.7°F2.6°C 35.6°F2.0°C 96% 2.0 mph WSW3.2 kmh WSW 3.1 mph5.0 kmh 25.04 in848.0 mb 0.00 in0.0 mm 0.00 in/hr0.0 mm/hr 0.00 in0.0 mm
08:46 PM 36.7°F2.6°C 35.6°F2.0°C 96% 1.0 mph WSW1.6 kmh WSW 4.0 mph6.4 kmh 25.04 in848.0 mb 0.00 in0.0 mm 0.00 in/hr0.0 mm/hr 0.00 in0.0 mm
08:41 PM 36.7°F2.6°C 35.6°F2.0°C 96% Calm Calm 2.7 mph4.3 kmh 25.04 in848.0 mb 0.00 in0.0 mm 0.00 in/hr0.0 mm/hr 0.00 in0.0 mm
08:36 PM 36.5°F2.5°C 35.4°F1.9°C 96% Calm Calm -- 25.04 in848.0 mb 0.00 in0.0 mm 0.00 in/hr0.0 mm/hr 0.00 in0.0 mm
08:31 PM 36.5°F2.5°C 35.4°F1.9°C 96% Calm Calm -- 25.04 in848.0 mb 0.00 in0.0 mm 0.00 in/hr0.0 mm/hr 0.00 in0.0 mm
08:26 PM 36.5°F2.5°C 35.4°F1.9°C 96% Calm Calm -- 25.04 in848.0 mb 0.00 in0.0 mm 0.00 in/hr0.0 mm/hr 0.00 in0.0 mm
08:21 PM 36.5°F2.5°C 35.4°F1.9°C 96% Calm Calm -- 25.04 in848.0 mb 0.00 in0.0 mm 0.00 in/hr0.0 mm/hr 0.00 in0.0 mm
08:16 PM 36.5°F2.5°C 35.4°F1.9°C 96% Calm Calm 2.7 mph4.3 kmh 25.04 in848.0 mb 0.00 in0.0 mm 0.00 in/hr0.0 mm/hr 0.00 in0.0 mm
08:11 PM 36.5°F2.5°C 35.2°F1.8°C 95% Calm Calm 2.7 mph4.3 kmh 25.04 in848.0 mb 0.00 in0.0 mm 0.00 in/hr0.0 mm/hr 0.00 in0.0 mm
08:06 PM 36.3°F2.4°C 35.1°F1.7°C 95% Calm Calm -- 25.04 in848.0 mb 0.00 in0.0 mm 0.00 in/hr0.0 mm/hr 0.00 in0.0 mm
08:01 PM 36.3°F2.4°C 35.1°F1.7°C 95% Calm Calm -- 25.04 in848.0 mb 0.00 in0.0 mm 0.00 in/hr0.0 mm/hr 0.00 in0.0 mm
07:56 PM 36.3°F2.4°C 35.1°F1.7°C 95% Calm Calm -- 25.04 in848.0 mb 0.00 in0.0 mm 0.00 in/hr0.0 mm/hr 0.00 in0.0 mm
07:51 PM 36.3°F2.4°C 35.1°F1.7°C 95% Calm Calm -- 25.04 in848.0 mb 0.00 in0.0 mm 0.00 in/hr0.0 mm/hr 0.00 in0.0 mm
07:46 PM 36.3°F2.4°C 35.1°F1.7°C 95% Calm Calm -- 25.04 in848.0 mb 0.00 in0.0 mm 0.00 in/hr0.0 mm/hr 0.00 in0.0 mm
07:41 PM 36.5°F2.5°C 34.9°F1.6°C 94% Calm Calm -- 25.04 in848.0 mb 0.00 in0.0 mm 0.00 in/hr0.0 mm/hr 0.00 in0.0 mm
07:36 PM 36.5°F2.5°C 34.9°F1.6°C 94% Calm Calm -- 25.04 in848.0 mb 0.00 in0.0 mm 0.00 in/hr0.0 mm/hr 0.00 in0.0 mm
07:31 PM 36.7°F2.6°C 35.1°F1.7°C 94% Calm Calm -- 25.04 in848.0 mb 0.00 in0.0 mm 0.00 in/hr0.0 mm/hr 0.00 in0.0 mm
07:26 PM 36.5°F2.5°C 34.9°F1.6°C 94% Calm Calm -- 25.04 in848.0 mb 0.00 in0.0 mm 0.00 in/hr0.0 mm/hr 0.00 in0.0 mm
07:21 PM 36.5°F2.5°C 34.9°F1.6°C 94% 1.0 mph WSW1.6 kmh WSW 2.7 mph4.3 kmh 25.04 in848.0 mb 0.00 in0.0 mm 0.00 in/hr0.0 mm/hr 0.00 in0.0 mm
07:16 PM 36.5°F2.5°C 34.9°F1.6°C 94% 2.0 mph WSW3.2 kmh WSW 3.1 mph5.0 kmh 25.04 in848.0 mb 0.00 in0.0 mm 0.00 in/hr0.0 mm/hr 0.00 in0.0 mm
07:11 PM 36.5°F2.5°C 34.9°F1.6°C 94% 1.0 mph WSW1.6 kmh WSW 3.1 mph5.0 kmh 25.04 in848.0 mb 0.00 in0.0 mm 0.00 in/hr0.0 mm/hr 0.00 in0.0 mm
07:06 PM 36.5°F2.5°C 34.9°F1.6°C 94% 1.0 mph WSW1.6 kmh WSW 3.1 mph5.0 kmh 25.04 in848.0 mb 0.00 in0.0 mm 0.00 in/hr0.0 mm/hr 0.00 in0.0 mm
07:01 PM 36.7°F2.6°C 35.1°F1.7°C 94% 2.0 mph WSW3.2 kmh WSW 4.0 mph6.4 kmh 25.04 in848.0 mb 0.00 in0.0 mm 0.00 in/hr0.0 mm/hr 0.00 in0.0 mm
06:56 PM 36.7°F2.6°C 35.1°F1.7°C 94% 2.0 mph WSW3.2 kmh WSW 3.6 mph5.8 kmh 25.04 in848.0 mb 0.00 in0.0 mm 0.00 in/hr0.0 mm/hr 0.00 in0.0 mm
06:51 PM 36.7°F2.6°C 35.1°F1.7°C 94% 2.0 mph WSW3.2 kmh WSW 4.0 mph6.4 kmh 25.01 in846.9 mb 0.00 in0.0 mm 0.00 in/hr0.0 mm/hr 0.00 in0.0 mm
06:46 PM 36.5°F2.5°C 34.9°F1.6°C 94% 1.0 mph WSW1.6 kmh WSW 3.6 mph5.8 kmh 25.01 in846.9 mb 0.00 in0.0 mm 0.00 in/hr0.0 mm/hr 0.00 in0.0 mm
06:40 PM 36.5°F2.5°C 34.9°F1.6°C 94% Calm Calm 2.7 mph4.3 kmh 25.01 in846.9 mb 0.00 in0.0 mm 0.00 in/hr0.0 mm/hr 0.00 in0.0 mm
06:35 PM 36.5°F2.5°C 34.7°F1.5°C 93% 1.0 mph WSW1.6 kmh WSW 2.7 mph4.3 kmh 25.01 in846.9 mb 0.00 in0.0 mm 0.00 in/hr0.0 mm/hr 0.00 in0.0 mm
06:30 PM 36.5°F2.5°C 34.7°F1.5°C 93% 2.0 mph WSW3.2 kmh WSW 3.1 mph5.0 kmh 25.01 in846.9 mb 0.00 in0.0 mm 0.00 in/hr0.0 mm/hr 0.00 in0.0 mm
06:25 PM 36.7°F2.6°C 34.9°F1.6°C 93% 2.0 mph WSW3.2 kmh WSW 3.6 mph5.8 kmh 25.01 in846.9 mb 0.00 in0.0 mm 0.00 in/hr0.0 mm/hr 0.00 in0.0 mm
06:20 PM 36.7°F2.6°C 34.9°F1.6°C 93% 2.0 mph WSW3.2 kmh WSW 3.6 mph5.8 kmh 25.01 in846.9 mb 0.00 in0.0 mm 0.00 in/hr0.0 mm/hr 0.00 in0.0 mm
06:15 PM 36.7°F2.6°C 34.9°F1.6°C 93% 2.0 mph WSW3.2 kmh WSW 3.6 mph5.8 kmh 25.01 in846.9 mb 0.00 in0.0 mm 0.00 in/hr0.0 mm/hr 0.00 in0.0 mm
06:10 PM 36.7°F2.6°C 34.9°F1.6°C 93% 2.0 mph WSW3.2 kmh WSW 3.1 mph5.0 kmh 25.01 in846.9 mb 0.00 in0.0 mm 0.00 in/hr0.0 mm/hr 0.00 in0.0 mm
06:05 PM 36.7°F2.6°C 34.9°F1.6°C 93% 2.0 mph WSW3.2 kmh WSW 4.0 mph6.4 kmh 25.01 in846.9 mb 0.00 in0.0 mm 0.00 in/hr0.0 mm/hr 0.00 in0.0 mm
06:00 PM 36.7°F2.6°C 34.5°F1.4°C 92% 2.0 mph WSW3.2 kmh WSW 3.1 mph5.0 kmh 25.01 in846.9 mb 0.00 in0.0 mm 0.00 in/hr0.0 mm/hr 0.00 in0.0 mm
05:55 PM 36.7°F2.6°C 34.5°F1.4°C 92% 2.0 mph WSW3.2 kmh WSW 3.1 mph5.0 kmh 25.01 in846.9 mb 0.00 in0.0 mm 0.00 in/hr0.0 mm/hr 0.00 in0.0 mm
05:50 PM 36.9°F2.7°C 34.7°F1.5°C 92% 1.0 mph WSW1.6 kmh WSW 3.6 mph5.8 kmh 25.01 in846.9 mb 0.00 in0.0 mm 0.00 in/hr0.0 mm/hr 0.00 in0.0 mm
05:45 PM 36.9°F2.7°C 34.7°F1.5°C 92% Calm Calm 2.7 mph4.3 kmh 25.01 in846.9 mb 0.00 in0.0 mm 0.00 in/hr0.0 mm/hr 0.00 in0.0 mm
05:40 PM 36.9°F2.7°C 34.7°F1.5°C 92% Calm Calm 2.7 mph4.3 kmh 25.01 in846.9 mb 0.00 in0.0 mm 0.00 in/hr0.0 mm/hr 0.00 in0.0 mm
05:35 PM 37.0°F2.8°C 34.9°F1.6°C 92% Calm Calm 2.7 mph4.3 kmh 25.01 in846.9 mb 0.00 in0.0 mm 0.00 in/hr0.0 mm/hr 0.00 in0.0 mm
05:30 PM 37.0°F2.8°C 34.9°F1.6°C 92% Calm Calm -- 25.01 in846.9 mb 0.00 in0.0 mm 0.00 in/hr0.0 mm/hr 0.00 in0.0 mm
05:25 PM 37.0°F2.8°C 34.9°F1.6°C 92% Calm Calm 3.1 mph5.0 kmh 25.01 in846.9 mb 0.00 in0.0 mm 0.00 in/hr0.0 mm/hr 0.00 in0.0 mm
05:20 PM 37.4°F3.0°C 35.2°F1.8°C 92% Calm Calm 2.7 mph4.3 kmh 25.01 in846.9 mb 0.00 in0.0 mm 0.00 in/hr0.0 mm/hr 0.00 in0.0 mm
05:15 PM 37.4°F3.0°C 35.2°F1.8°C 92% 1.0 mph WSW1.6 kmh WSW 3.1 mph5.0 kmh 25.01 in846.9 mb 0.00 in0.0 mm 0.00 in/hr0.0 mm/hr 0.00 in0.0 mm
05:10 PM 37.6°F3.1°C 35.4°F1.9°C 92% 2.0 mph WSW3.2 kmh WSW 3.6 mph5.8 kmh 25.01 in846.9 mb 0.00 in0.0 mm 0.00 in/hr0.0 mm/hr 0.00 in0.0 mm
05:05 PM 37.6°F3.1°C 35.4°F1.9°C 92% 2.0 mph WSW3.2 kmh WSW 3.6 mph5.8 kmh 25.01 in846.9 mb 0.00 in0.0 mm 0.00 in/hr0.0 mm/hr 0.00 in0.0 mm
05:00 PM 37.6°F3.1°C 35.8°F2.1°C 93% 2.0 mph WSW3.2 kmh WSW 3.6 mph5.8 kmh 25.01 in846.9 mb 0.00 in0.0 mm 0.00 in/hr0.0 mm/hr 0.00 in0.0 mm
04:55 PM 37.8°F3.2°C 35.6°F2.0°C 92% 3.0 mph WSW4.8 kmh WSW 4.0 mph6.4 kmh 25.01 in846.9 mb 0.00 in0.0 mm 0.00 in/hr0.0 mm/hr 0.00 in0.0 mm
04:50 PM 37.8°F3.2°C 35.6°F2.0°C 92% 3.0 mph WSW4.8 kmh WSW 4.5 mph7.2 kmh 25.01 in846.9 mb 0.00 in0.0 mm 0.00 in/hr0.0 mm/hr 0.00 in0.0 mm
04:45 PM 37.8°F3.2°C 35.6°F2.0°C 92% 3.0 mph WSW4.8 kmh WSW 4.0 mph6.4 kmh 25.01 in846.9 mb 0.00 in0.0 mm 0.00 in/hr0.0 mm/hr 0.00 in0.0 mm
04:40 PM 37.9°F3.3°C 35.6°F2.0°C 91% 3.0 mph WSW4.8 kmh WSW 4.0 mph6.4 kmh 25.01 in846.9 mb 0.00 in0.0 mm 0.00 in/hr0.0 mm/hr 0.00 in0.0 mm
04:35 PM 37.9°F3.3°C 35.6°F2.0°C 91% 3.0 mph WSW4.8 kmh WSW 4.0 mph6.4 kmh 24.98 in845.9 mb 0.00 in0.0 mm 0.00 in/hr0.0 mm/hr 0.00 in0.0 mm
04:30 PM 37.9°F3.3°C 35.6°F2.0°C 91% 3.0 mph WSW4.8 kmh WSW 4.5 mph7.2 kmh 24.98 in845.9 mb 0.00 in0.0 mm 0.00 in/hr0.0 mm/hr 0.00 in0.0 mm
04:25 PM 38.1°F3.4°C 35.8°F2.1°C 91% 3.0 mph WSW4.8 kmh WSW 4.5 mph7.2 kmh 24.98 in845.9 mb 0.00 in0.0 mm 0.00 in/hr0.0 mm/hr 0.00 in0.0 mm
04:20 PM 38.1°F3.4°C 35.8°F2.1°C 91% 3.0 mph WSW4.8 kmh WSW 4.5 mph7.2 kmh 24.98 in845.9 mb 0.00 in0.0 mm 0.00 in/hr0.0 mm/hr 0.00 in0.0 mm
04:15 PM 38.1°F3.4°C 35.8°F2.1°C 91% 3.0 mph WSW4.8 kmh WSW 4.9 mph7.9 kmh 24.98 in845.9 mb 0.00 in0.0 mm 0.00 in/hr0.0 mm/hr 0.00 in0.0 mm
04:10 PM 38.3°F3.5°C 36.0°F2.2°C 91% 3.0 mph WSW4.8 kmh WSW 4.5 mph7.2 kmh 24.98 in845.9 mb 0.00 in0.0 mm 0.00 in/hr0.0 mm/hr 0.00 in0.0 mm
04:05 PM 38.3°F3.5°C 35.6°F2.0°C 90% 3.0 mph WSW4.8 kmh WSW 4.9 mph7.9 kmh 24.98 in845.9 mb 0.00 in0.0 mm 0.00 in/hr0.0 mm/hr 0.00 in0.0 mm
04:00 PM 38.3°F3.5°C 35.6°F2.0°C 90% 3.0 mph WSW4.8 kmh WSW 5.4 mph8.7 kmh 24.98 in845.9 mb 0.00 in0.0 mm 0.00 in/hr0.0 mm/hr 0.00 in0.0 mm
03:55 PM 38.5°F3.6°C 35.8°F2.1°C 90% 3.0 mph WSW4.8 kmh WSW 5.4 mph8.7 kmh 24.98 in845.9 mb 0.00 in0.0 mm 0.00 in/hr0.0 mm/hr 0.00 in0.0 mm
03:50 PM 38.5°F3.6°C 35.6°F2.0°C 89% 4.0 mph WSW6.4 kmh WSW 5.4 mph8.7 kmh 24.98 in845.9 mb 0.00 in0.0 mm 0.00 in/hr0.0 mm/hr 0.00 in0.0 mm
03:45 PM 38.7°F3.7°C 35.4°F1.9°C 88% 4.0 mph SW6.4 kmh SW 5.8 mph9.3 kmh 24.98 in845.9 mb 0.00 in0.0 mm 0.00 in/hr0.0 mm/hr 0.00 in0.0 mm
03:40 PM 38.8°F3.8°C 35.2°F1.8°C 87% 3.0 mph SSW4.8 kmh SSW 5.4 mph8.7 kmh 24.98 in845.9 mb 0.00 in0.0 mm 0.00 in/hr0.0 mm/hr 0.00 in0.0 mm
03:35 PM 38.8°F3.8°C 34.7°F1.5°C 85% 3.0 mph S4.8 kmh S 5.4 mph8.7 kmh 24.98 in845.9 mb 0.00 in0.0 mm 0.00 in/hr0.0 mm/hr 0.00 in0.0 mm
03:30 PM 38.8°F3.8°C 34.3°F1.3°C 84% 3.0 mph SSE4.8 kmh SSE 5.8 mph9.3 kmh 24.98 in845.9 mb 0.00 in0.0 mm 0.00 in/hr0.0 mm/hr 0.00 in0.0 mm
03:25 PM 38.8°F3.8°C 34.2°F1.2°C 83% 3.0 mph SE4.8 kmh SE 5.4 mph8.7 kmh 24.98 in845.9 mb 0.00 in0.0 mm 0.00 in/hr0.0 mm/hr 0.00 in0.0 mm
03:20 PM 38.8°F3.8°C 33.8°F1.0°C 82% 3.0 mph SE4.8 kmh SE 4.5 mph7.2 kmh 24.98 in845.9 mb 0.00 in0.0 mm 0.00 in/hr0.0 mm/hr 0.00 in0.0 mm
03:15 PM 38.8°F3.8°C 33.8°F1.0°C 82% 3.0 mph SE4.8 kmh SE 5.4 mph8.7 kmh 24.98 in845.9 mb 0.00 in0.0 mm 0.00 in/hr0.0 mm/hr 0.00 in0.0 mm
03:10 PM 38.8°F3.8°C 33.8°F1.0°C 82% 3.0 mph SE4.8 kmh SE 5.4 mph8.7 kmh 24.98 in845.9 mb 0.00 in0.0 mm 0.00 in/hr0.0 mm/hr 0.00 in0.0 mm
03:05 PM 39.2°F4.0°C 33.8°F1.0°C 81% 4.0 mph SE6.4 kmh SE 5.4 mph8.7 kmh 24.98 in845.9 mb 0.00 in0.0 mm 0.00 in/hr0.0 mm/hr 0.00 in0.0 mm
03:00 PM 39.2°F4.0°C 33.6°F0.9°C 80% 3.0 mph SE4.8 kmh SE 5.4 mph8.7 kmh 24.98 in845.9 mb 0.00 in0.0 mm 0.00 in/hr0.0 mm/hr 0.00 in0.0 mm
02:55 PM 39.0°F3.9°C 32.7°F0.4°C 78% 3.0 mph SE4.8 kmh SE 6.3 mph10.1 kmh 24.98 in845.9 mb 0.00 in0.0 mm 0.00 in/hr0.0 mm/hr 0.00 in0.0 mm
02:50 PM 39.2°F4.0°C 32.9°F0.5°C 78% 4.0 mph SE6.4 kmh SE 4.9 mph7.9 kmh 24.98 in845.9 mb 0.00 in0.0 mm 0.00 in/hr0.0 mm/hr 0.00 in0.0 mm
02:45 PM 39.2°F4.0°C 32.9°F0.5°C 78% 3.0 mph SE4.8 kmh SE 5.4 mph8.7 kmh 24.98 in845.9 mb 0.00 in0.0 mm 0.00 in/hr0.0 mm/hr 0.00 in0.0 mm
02:40 PM 39.4°F4.1°C 33.1°F0.6°C 78% 2.0 mph ESE3.2 kmh ESE 4.9 mph7.9 kmh 24.98 in845.9 mb 0.00 in0.0 mm 0.00 in/hr0.0 mm/hr 0.00 in0.0 mm
02:35 PM 39.4°F4.1°C 33.1°F0.6°C 78% 2.0 mph ESE3.2 kmh ESE 5.4 mph8.7 kmh 24.98 in845.9 mb 0.00 in0.0 mm 0.00 in/hr0.0 mm/hr 0.00 in0.0 mm
02:30 PM 39.2°F4.0°C 32.5°F0.3°C 77% 1.0 mph ESE1.6 kmh ESE 4.5 mph7.2 kmh 24.98 in845.9 mb 0.00 in0.0 mm 0.00 in/hr0.0 mm/hr 0.00 in0.0 mm
02:25 PM 39.4°F4.1°C 33.1°F0.6°C 78% Calm Calm 2.7 mph4.3 kmh 24.98 in845.9 mb 0.00 in0.0 mm 0.00 in/hr0.0 mm/hr 0.00 in0.0 mm
02:20 PM 39.2°F4.0°C 32.9°F0.5°C 78% Calm Calm 4.0 mph6.4 kmh 24.98 in845.9 mb 0.00 in0.0 mm 0.00 in/hr0.0 mm/hr 0.00 in0.0 mm
02:15 PM 39.2°F4.0°C 32.9°F0.5°C 78% Calm Calm -- 24.98 in845.9 mb 0.00 in0.0 mm 0.00 in/hr0.0 mm/hr 0.00 in0.0 mm
02:10 PM 39.2°F4.0°C 33.3°F0.7°C 79% Calm Calm 3.6 mph5.8 kmh 24.98 in845.9 mb 0.00 in0.0 mm 0.00 in/hr0.0 mm/hr 0.00 in0.0 mm
02:05 PM 39.2°F4.0°C 33.3°F0.7°C 79% 1.0 mph ESE1.6 kmh ESE 3.1 mph5.0 kmh 24.98 in845.9 mb 0.00 in0.0 mm 0.00 in/hr0.0 mm/hr 0.00 in0.0 mm
02:00 PM 38.8°F3.8°C 32.5°F0.3°C 78% 1.0 mph ESE1.6 kmh ESE 4.5 mph7.2 kmh 24.98 in845.9 mb 0.00 in0.0 mm 0.00 in/hr0.0 mm/hr 0.00 in0.0 mm
01:55 PM 39.2°F4.0°C 33.6°F0.9°C 80% 1.0 mph ESE1.6 kmh ESE 2.7 mph4.3 kmh 24.98 in845.9 mb 0.00 in0.0 mm 0.00 in/hr0.0 mm/hr 0.00 in0.0 mm
01:50 PM 38.8°F3.8°C 33.4°F0.8°C 81% Calm Calm 4.5 mph7.2 kmh 24.98 in845.9 mb 0.00 in0.0 mm 0.00 in/hr0.0 mm/hr 0.00 in0.0 mm
01:45 PM 39.4°F4.1°C 34.0°F1.1°C 81% Calm Calm 2.7 mph4.3 kmh 24.98 in845.9 mb 0.00 in0.0 mm 0.00 in/hr0.0 mm/hr 0.00 in0.0 mm
01:40 PM 39.0°F3.9°C 34.0°F1.1°C 82% 1.0 mph ESE1.6 kmh ESE 3.1 mph5.0 kmh 24.98 in845.9 mb 0.00 in0.0 mm 0.00 in/hr0.0 mm/hr 0.00 in0.0 mm
01:35 PM 38.8°F3.8°C 33.8°F1.0°C 82% 2.0 mph E3.2 kmh E 4.5 mph7.2 kmh 24.98 in845.9 mb 0.00 in0.0 mm 0.00 in/hr0.0 mm/hr 0.00 in0.0 mm
01:30 PM 38.7°F3.7°C 33.6°F0.9°C 82% 2.0 mph WNW3.2 kmh WNW 4.9 mph7.9 kmh 24.98 in845.9 mb 0.00 in0.0 mm 0.00 in/hr0.0 mm/hr 0.00 in0.0 mm
01:25 PM 38.7°F3.7°C 34.0°F1.1°C 83% 1.0 mph N1.6 kmh N 4.5 mph7.2 kmh 24.98 in845.9 mb 0.00 in0.0 mm 0.00 in/hr0.0 mm/hr 0.00 in0.0 mm
01:20 PM 38.7°F3.7°C 34.2°F1.2°C 84% 1.0 mph ENE1.6 kmh ENE 3.6 mph5.8 kmh 24.98 in845.9 mb 0.00 in0.0 mm 0.00 in/hr0.0 mm/hr 0.00 in0.0 mm
01:15 PM 38.5°F3.6°C 34.7°F1.5°C 86% 2.0 mph ENE3.2 kmh ENE 4.5 mph7.2 kmh 24.98 in845.9 mb 0.00 in0.0 mm 0.00 in/hr0.0 mm/hr 0.00 in0.0 mm
01:10 PM 39.0°F3.9°C 34.9°F1.6°C 85% 3.0 mph ENE4.8 kmh ENE 4.0 mph6.4 kmh 24.98 in845.9 mb 0.00 in0.0 mm 0.00 in/hr0.0 mm/hr 0.00 in0.0 mm
01:05 PM 38.7°F3.7°C 34.9°F1.6°C 86% 4.0 mph NE6.4 kmh NE 5.4 mph8.7 kmh 24.98 in845.9 mb 0.00 in0.0 mm 0.00 in/hr0.0 mm/hr 0.00 in0.0 mm
01:00 PM 38.5°F3.6°C 34.7°F1.5°C 86% 4.0 mph NE6.4 kmh NE 6.3 mph10.1 kmh 24.98 in845.9 mb 0.00 in0.0 mm 0.00 in/hr0.0 mm/hr 0.00 in0.0 mm
12:55 PM 38.5°F3.6°C 34.9°F1.6°C 87% 4.0 mph NE6.4 kmh NE 6.7 mph10.8 kmh 24.98 in845.9 mb 0.00 in0.0 mm 0.00 in/hr0.0 mm/hr 0.00 in0.0 mm
12:50 PM 37.9°F3.3°C 34.3°F1.3°C 87% 4.0 mph NE6.4 kmh NE 5.8 mph9.3 kmh 24.98 in845.9 mb 0.00 in0.0 mm 0.00 in/hr0.0 mm/hr 0.00 in0.0 mm
12:45 PM 37.9°F3.3°C 34.7°F1.5°C 88% 4.0 mph NE6.4 kmh NE 6.3 mph10.1 kmh 24.98 in845.9 mb 0.00 in0.0 mm 0.00 in/hr0.0 mm/hr 0.00 in0.0 mm
12:40 PM 37.6°F3.1°C 34.3°F1.3°C 88% 3.0 mph NE4.8 kmh NE 6.3 mph10.1 kmh 24.98 in845.9 mb 0.00 in0.0 mm 0.00 in/hr0.0 mm/hr 0.00 in0.0 mm
12:35 PM 37.4°F3.0°C 34.5°F1.4°C 89% 3.0 mph NE4.8 kmh NE 5.4 mph8.7 kmh 24.98 in845.9 mb 0.00 in0.0 mm 0.00 in/hr0.0 mm/hr 0.00 in0.0 mm
12:30 PM 37.6°F3.1°C 34.9°F1.6°C 90% 3.0 mph NNE4.8 kmh NNE 5.4 mph8.7 kmh 24.98 in845.9 mb 0.00 in0.0 mm 0.00 in/hr0.0 mm/hr 0.00 in0.0 mm
12:25 PM 37.2°F2.9°C 34.9°F1.6°C 91% 4.0 mph NNE6.4 kmh NNE 6.3 mph10.1 kmh 24.98 in845.9 mb 0.00 in0.0 mm 0.00 in/hr0.0 mm/hr 0.00 in0.0 mm
12:20 PM 37.2°F2.9°C 34.9°F1.6°C 91% 4.0 mph NE6.4 kmh NE 5.4 mph8.7 kmh 25.01 in846.9 mb 0.00 in0.0 mm 0.00 in/hr0.0 mm/hr 0.00 in0.0 mm
12:15 PM 37.0°F2.8°C 34.7°F1.5°C 91% 3.0 mph ENE4.8 kmh ENE 5.8 mph9.3 kmh 25.01 in846.9 mb 0.00 in0.0 mm 0.00 in/hr0.0 mm/hr 0.00 in0.0 mm
12:10 PM 36.9°F2.7°C 34.5°F1.4°C 91% 4.0 mph ENE6.4 kmh ENE 4.9 mph7.9 kmh 25.01 in846.9 mb 0.00 in0.0 mm 0.00 in/hr0.0 mm/hr 0.00 in0.0 mm
12:05 PM 36.7°F2.6°C 34.5°F1.4°C 92% 4.0 mph ENE6.4 kmh ENE 6.3 mph10.1 kmh 25.01 in846.9 mb 0.00 in0.0 mm 0.00 in/hr0.0 mm/hr 0.00 in0.0 mm
11:59 AM 36.3°F2.4°C 34.5°F1.4°C 93% 4.0 mph ENE6.4 kmh ENE 5.8 mph9.3 kmh 25.01 in846.9 mb 0.00 in0.0 mm 0.00 in/hr0.0 mm/hr 0.00 in0.0 mm
11:54 AM 36.5°F2.5°C 34.3°F1.3°C 92% 4.0 mph ENE6.4 kmh ENE 7.8 mph12.6 kmh 25.01 in846.9 mb 0.00 in0.0 mm 0.00 in/hr0.0 mm/hr 0.00 in0.0 mm
11:49 AM 36.3°F2.4°C 34.5°F1.4°C 93% 4.0 mph ENE6.4 kmh ENE 6.3 mph10.1 kmh 25.01 in846.9 mb 0.00 in0.0 mm 0.00 in/hr0.0 mm/hr 0.00 in0.0 mm
11:44 AM 36.3°F2.4°C 34.5°F1.4°C 93% 4.0 mph ENE6.4 kmh ENE 6.9 mph11.1 kmh 25.01 in846.9 mb 0.00 in0.0 mm 0.00 in/hr0.0 mm/hr 0.00 in0.0 mm
11:39 AM 36.1°F2.3°C 34.5°F1.4°C 94% 4.0 mph E6.4 kmh E 5.4 mph8.7 kmh 25.01 in846.9 mb 0.00 in0.0 mm 0.00 in/hr0.0 mm/hr 0.00 in0.0 mm
11:34 AM 35.8°F2.1°C 34.2°F1.2°C 94% 4.0 mph ENE6.4 kmh ENE 6.9 mph11.1 kmh 25.01 in846.9 mb 0.00 in0.0 mm 0.00 in/hr0.0 mm/hr 0.00 in0.0 mm
11:29 AM 36.1°F2.3°C 34.5°F1.4°C 94% 2.0 mph NE3.2 kmh NE 5.4 mph8.7 kmh 25.01 in846.9 mb 0.00 in0.0 mm 0.00 in/hr0.0 mm/hr 0.00 in0.0 mm
11:24 AM 35.6°F2.0°C 33.8°F1.0°C 93% 1.0 mph NNE1.6 kmh NNE 4.0 mph6.4 kmh 25.01 in846.9 mb 0.00 in0.0 mm 0.00 in/hr0.0 mm/hr 0.00 in0.0 mm
11:19 AM 35.2°F1.8°C 33.4°F0.8°C 93% 2.0 mph NNE3.2 kmh NNE 3.6 mph5.8 kmh 25.01 in846.9 mb 0.00 in0.0 mm 0.00 in/hr0.0 mm/hr 0.00 in0.0 mm
11:14 AM 35.1°F1.7°C 33.3°F0.7°C 93% 3.0 mph NNE4.8 kmh NNE 5.4 mph8.7 kmh 25.01 in846.9 mb 0.00 in0.0 mm 0.00 in/hr0.0 mm/hr 0.00 in0.0 mm
11:09 AM 35.2°F1.8°C 33.4°F0.8°C 93% 3.0 mph NNE4.8 kmh NNE 6.3 mph10.1 kmh 25.01 in846.9 mb 0.00 in0.0 mm 0.00 in/hr0.0 mm/hr 0.00 in0.0 mm
11:04 AM 34.9°F1.6°C 33.1°F0.6°C 93% 2.0 mph N3.2 kmh N 5.8 mph9.3 kmh 25.04 in848.0 mb 0.00 in0.0 mm 0.00 in/hr0.0 mm/hr 0.00 in0.0 mm
10:59 AM 35.1°F1.7°C 33.3°F0.7°C 93% 2.0 mph 3.2 kmh 4.5 mph7.2 kmh 25.04 in848.0 mb 0.00 in0.0 mm 0.00 in/hr0.0 mm/hr 0.00 in0.0 mm
10:54 AM 34.9°F1.6°C 33.1°F0.6°C 93% 3.0 mph N4.8 kmh N 4.5 mph7.2 kmh 25.04 in848.0 mb 0.00 in0.0 mm 0.00 in/hr0.0 mm/hr 0.00 in0.0 mm
10:49 AM 35.1°F1.7°C 33.3°F0.7°C 93% 3.0 mph N4.8 kmh N 5.4 mph8.7 kmh 25.04 in848.0 mb 0.00 in0.0 mm 0.00 in/hr0.0 mm/hr 0.00 in0.0 mm
10:44 AM 35.1°F1.7°C 33.3°F0.7°C 93% 1.0 mph N1.6 kmh N 5.4 mph8.7 kmh 25.04 in848.0 mb 0.00 in0.0 mm 0.00 in/hr0.0 mm/hr 0.00 in0.0 mm
10:39 AM 34.3°F1.3°C 32.7°F0.4°C 94% 2.0 mph NNW3.2 kmh NNW 4.0 mph6.4 kmh 25.04 in848.0 mb 0.00 in0.0 mm 0.00 in/hr0.0 mm/hr 0.00 in0.0 mm
10:34 AM 34.0°F1.1°C 32.2°F0.1°C 93% 3.0 mph NNW4.8 kmh NNW 3.6 mph5.8 kmh 25.04 in848.0 mb 0.00 in0.0 mm 0.00 in/hr0.0 mm/hr 0.00 in0.0 mm
10:29 AM 33.8°F1.0°C 32.0°F0.0°C 93% 2.0 mph NNW3.2 kmh NNW 4.5 mph7.2 kmh 25.04 in848.0 mb 0.00 in0.0 mm 0.00 in/hr0.0 mm/hr 0.00 in0.0 mm
10:24 AM 34.0°F1.1°C 32.2°F0.1°C 93% 1.0 mph NNW1.6 kmh NNW 4.0 mph6.4 kmh 25.04 in848.0 mb 0.00 in0.0 mm 0.00 in/hr0.0 mm/hr 0.00 in0.0 mm
10:19 AM 33.6°F0.9°C 31.8°F-0.1°C 93% Calm Calm 4.0 mph6.4 kmh 25.04 in848.0 mb 0.00 in0.0 mm 0.00 in/hr0.0 mm/hr 0.00 in0.0 mm
10:14 AM 33.6°F0.9°C 31.8°F-0.1°C 93% Calm Calm -- 25.04 in848.0 mb 0.00 in0.0 mm 0.00 in/hr0.0 mm/hr 0.00 in0.0 mm
10:09 AM 33.6°F0.9°C 31.5°F-0.3°C 92% 1.0 mph NNW1.6 kmh NNW 3.1 mph5.0 kmh 25.04 in848.0 mb 0.00 in0.0 mm 0.00 in/hr0.0 mm/hr 0.00 in0.0 mm
10:04 AM 33.4°F0.8°C 31.5°F-0.3°C 92% 2.0 mph NNW3.2 kmh NNW 3.6 mph5.8 kmh 25.04 in848.0 mb 0.00 in0.0 mm 0.00 in/hr0.0 mm/hr 0.00 in0.0 mm
09:59 AM 33.3°F0.7°C 30.9°F-0.6°C 91% 2.0 mph NNW3.2 kmh NNW 4.0 mph6.4 kmh 25.04 in848.0 mb 0.00 in0.0 mm 0.00 in/hr0.0 mm/hr 0.00 in0.0 mm
09:54 AM 33.3°F0.7°C 30.9°F-0.6°C 91% 2.0 mph NNW3.2 kmh NNW 4.5 mph7.2 kmh 25.04 in848.0 mb 0.00 in0.0 mm 0.00 in/hr0.0 mm/hr 0.00 in0.0 mm
09:49 AM 33.1°F0.6°C 30.7°F-0.7°C 91% 2.0 mph NNW3.2 kmh NNW 4.5 mph7.2 kmh 25.04 in848.0 mb 0.00 in0.0 mm 0.00 in/hr0.0 mm/hr 0.00 in0.0 mm
09:44 AM 33.1°F0.6°C 30.7°F-0.7°C 91% 2.0 mph NNW3.2 kmh NNW 4.0 mph6.4 kmh 25.04 in848.0 mb 0.00 in0.0 mm 0.00 in/hr0.0 mm/hr 0.00 in0.0 mm
09:39 AM 33.3°F0.7°C 30.7°F-0.7°C 90% 2.0 mph NNW3.2 kmh NNW 4.0 mph6.4 kmh 25.04 in848.0 mb 0.00 in0.0 mm 0.00 in/hr0.0 mm/hr 0.00 in0.0 mm
09:34 AM 33.1°F0.6°C 30.6°F-0.8°C 90% 2.0 mph NNW3.2 kmh NNW 4.0 mph6.4 kmh 25.04 in848.0 mb 0.00 in0.0 mm 0.00 in/hr0.0 mm/hr 0.00 in0.0 mm
09:29 AM 33.1°F0.6°C 30.2°F-1.0°C 89% 3.0 mph N4.8 kmh N 4.9 mph7.9 kmh 25.04 in848.0 mb 0.00 in0.0 mm 0.00 in/hr0.0 mm/hr 0.00 in0.0 mm
09:24 AM 33.1°F0.6°C 30.2°F-1.0°C 89% 2.0 mph N3.2 kmh N 4.5 mph7.2 kmh 25.04 in848.0 mb 0.00 in0.0 mm 0.00 in/hr0.0 mm/hr 0.00 in0.0 mm
09:19 AM 33.1°F0.6°C 30.2°F-1.0°C 89% 2.0 mph N3.2 kmh N 4.5 mph7.2 kmh 25.04 in848.0 mb 0.00 in0.0 mm 0.00 in/hr0.0 mm/hr 0.00 in0.0 mm
09:14 AM 33.1°F0.6°C 29.8°F-1.2°C 88% 3.0 mph N4.8 kmh N 4.0 mph6.4 kmh 25.04 in848.0 mb 0.00 in0.0 mm 0.00 in/hr0.0 mm/hr 0.00 in0.0 mm
09:09 AM 32.7°F0.4°C 29.5°F-1.4°C 88% 2.0 mph N3.2 kmh N 4.0 mph6.4 kmh 25.04 in848.0 mb 0.00 in0.0 mm 0.00 in/hr0.0 mm/hr 0.00 in0.0 mm
09:04 AM 32.7°F0.4°C 29.5°F-1.4°C 88% 2.0 mph N3.2 kmh N 3.6 mph5.8 kmh 25.04 in848.0 mb 0.00 in0.0 mm 0.00 in/hr0.0 mm/hr 0.00 in0.0 mm
08:59 AM 32.7°F0.4°C 29.3°F-1.5°C 87% 3.0 mph N4.8 kmh N 4.5 mph7.2 kmh 25.04 in848.0 mb 0.00 in0.0 mm 0.00 in/hr0.0 mm/hr 0.00 in0.0 mm
08:54 AM 32.7°F0.4°C 29.3°F-1.5°C 87% 3.0 mph N4.8 kmh N 4.5 mph7.2 kmh 25.04 in848.0 mb 0.00 in0.0 mm 0.00 in/hr0.0 mm/hr 0.00 in0.0 mm
08:49 AM 32.7°F0.4°C 28.9°F-1.7°C 86% 3.0 mph N4.8 kmh N 3.6 mph5.8 kmh 25.04 in848.0 mb 0.00 in0.0 mm 0.00 in/hr0.0 mm/hr 0.00 in0.0 mm
08:44 AM 32.7°F0.4°C 28.9°F-1.7°C 86% 3.0 mph N4.8 kmh N 4.0 mph6.4 kmh 25.04 in848.0 mb 0.00 in0.0 mm 0.00 in/hr0.0 mm/hr 0.00 in0.0 mm
08:39 AM 32.5°F0.3°C 28.8°F-1.8°C 86% 2.0 mph N3.2 kmh N 3.6 mph5.8 kmh 25.04 in848.0 mb 0.00 in0.0 mm 0.00 in/hr0.0 mm/hr 0.00 in0.0 mm
08:34 AM 32.7°F0.4°C 28.8°F-1.8°C 85% 2.0 mph N3.2 kmh N 4.0 mph6.4 kmh 25.04 in848.0 mb 0.00 in0.0 mm 0.00 in/hr0.0 mm/hr 0.00 in0.0 mm
08:29 AM 32.9°F0.5°C 28.9°F-1.7°C 85% 2.0 mph N3.2 kmh N 3.6 mph5.8 kmh 25.04 in848.0 mb 0.00 in0.0 mm 0.00 in/hr0.0 mm/hr 0.00 in0.0 mm
08:24 AM 33.1°F0.6°C 29.1°F-1.6°C 85% 2.0 mph N3.2 kmh N 4.0 mph6.4 kmh 25.04 in848.0 mb 0.00 in0.0 mm 0.00 in/hr0.0 mm/hr 0.00 in0.0 mm
08:19 AM 33.1°F0.6°C 28.8°F-1.8°C 84% 1.0 mph N1.6 kmh N 3.1 mph5.0 kmh 25.04 in848.0 mb 0.00 in0.0 mm 0.00 in/hr0.0 mm/hr 0.00 in0.0 mm
08:14 AM 32.9°F0.5°C 28.6°F-1.9°C 84% 2.0 mph N3.2 kmh N 3.6 mph5.8 kmh 25.04 in848.0 mb 0.00 in0.0 mm 0.00 in/hr0.0 mm/hr 0.00 in0.0 mm
08:09 AM 32.9°F0.5°C 28.4°F-2.0°C 83% 3.0 mph NNW4.8 kmh NNW 4.9 mph7.9 kmh 25.04 in848.0 mb 0.00 in0.0 mm 0.00 in/hr0.0 mm/hr 0.00 in0.0 mm
08:04 AM 32.9°F0.5°C 28.4°F-2.0°C 83% 3.0 mph NW4.8 kmh NW 5.4 mph8.7 kmh 25.04 in848.0 mb 0.00 in0.0 mm 0.00 in/hr0.0 mm/hr 0.00 in0.0 mm
07:59 AM 33.1°F0.6°C 28.2°F-2.1°C 82% 3.0 mph NW4.8 kmh NW 4.5 mph7.2 kmh 25.04 in848.0 mb 0.00 in0.0 mm 0.00 in/hr0.0 mm/hr 0.00 in0.0 mm
07:54 AM 33.1°F0.6°C 28.2°F-2.1°C 82% 3.0 mph NW4.8 kmh NW 4.5 mph7.2 kmh 25.04 in848.0 mb 0.00 in0.0 mm 0.00 in/hr0.0 mm/hr 0.00 in0.0 mm
07:49 AM 33.3°F0.7°C 28.4°F-2.0°C 82% 3.0 mph NW4.8 kmh NW 4.9 mph7.9 kmh 25.04 in848.0 mb 0.00 in0.0 mm 0.00 in/hr0.0 mm/hr 0.00 in0.0 mm
07:44 AM 33.3°F0.7°C 28.4°F-2.0°C 82% 3.0 mph NW4.8 kmh NW 4.9 mph7.9 kmh 25.04 in848.0 mb 0.00 in0.0 mm 0.00 in/hr0.0 mm/hr 0.00 in0.0 mm
07:39 AM 33.4°F0.8°C 28.8°F-1.8°C 83% 4.0 mph NW6.4 kmh NW 5.4 mph8.7 kmh 25.04 in848.0 mb 0.00 in0.0 mm 0.00 in/hr0.0 mm/hr 0.00 in0.0 mm
07:34 AM 33.4°F0.8°C 28.8°F-1.8°C 83% 4.0 mph NNW6.4 kmh NNW 5.8 mph9.3 kmh 25.04 in848.0 mb 0.00 in0.0 mm 0.00 in/hr0.0 mm/hr 0.00 in0.0 mm
07:29 AM 33.3°F0.7°C 28.6°F-1.9°C 83% 4.0 mph NNW6.4 kmh NNW 4.9 mph7.9 kmh 25.04 in848.0 mb 0.00 in0.0 mm 0.00 in/hr0.0 mm/hr 0.00 in0.0 mm
07:24 AM 32.9°F0.5°C 28.0°F-2.2°C 82% 3.0 mph N4.8 kmh N 4.9 mph7.9 kmh 25.04 in848.0 mb 0.00 in0.0 mm 0.00 in/hr0.0 mm/hr 0.00 in0.0 mm
07:19 AM 32.7°F0.4°C 27.5°F-2.5°C 81% 3.0 mph N4.8 kmh N 5.4 mph8.7 kmh 25.04 in848.0 mb 0.00 in0.0 mm 0.00 in/hr0.0 mm/hr 0.00 in0.0 mm
07:14 AM 32.4°F0.2°C 27.1°F-2.7°C 81% 3.0 mph N4.8 kmh N 4.5 mph7.2 kmh 25.04 in848.0 mb 0.00 in0.0 mm 0.00 in/hr0.0 mm/hr 0.00 in0.0 mm
07:09 AM 32.0°F0.0°C 26.8°F-2.9°C 81% 2.0 mph N3.2 kmh N 4.0 mph6.4 kmh 25.04 in848.0 mb 0.00 in0.0 mm 0.00 in/hr0.0 mm/hr 0.00 in0.0 mm
07:04 AM 31.8°F-0.1°C 27.0°F-2.8°C 82% 2.0 mph N3.2 kmh N 3.6 mph5.8 kmh 25.04 in848.0 mb 0.00 in0.0 mm 0.00 in/hr0.0 mm/hr 0.00 in0.0 mm
06:59 AM 31.6°F-0.2°C 26.8°F-2.9°C 82% 1.0 mph N1.6 kmh N 3.6 mph5.8 kmh 25.04 in848.0 mb 0.00 in0.0 mm 0.00 in/hr0.0 mm/hr 0.00 in0.0 mm
06:54 AM 31.6°F-0.2°C 26.8°F-2.9°C 82% 1.0 mph 1.6 kmh 3.1 mph5.0 kmh 25.04 in848.0 mb 0.00 in0.0 mm 0.00 in/hr0.0 mm/hr 0.00 in0.0 mm
06:49 AM 31.6°F-0.2°C 26.4°F-3.1°C 81% 2.0 mph N3.2 kmh N 3.6 mph5.8 kmh 25.04 in848.0 mb 0.00 in0.0 mm 0.00 in/hr0.0 mm/hr 0.00 in0.0 mm
06:44 AM 31.8°F-0.1°C 26.6°F-3.0°C 81% 2.0 mph NW3.2 kmh NW 4.5 mph7.2 kmh 25.04 in848.0 mb 0.00 in0.0 mm 0.00 in/hr0.0 mm/hr 0.00 in0.0 mm
06:39 AM 32.2°F0.1°C 27.0°F-2.8°C 81% Calm Calm 4.0 mph6.4 kmh 25.04 in848.0 mb 0.00 in0.0 mm 0.00 in/hr0.0 mm/hr 0.00 in0.0 mm
06:34 AM 32.0°F0.0°C 26.8°F-2.9°C 81% Calm Calm 2.7 mph4.3 kmh 25.04 in848.0 mb 0.00 in0.0 mm 0.00 in/hr0.0 mm/hr 0.00 in0.0 mm
06:29 AM 31.8°F-0.1°C 26.6°F-3.0°C 81% Calm Calm -- 25.04 in848.0 mb 0.00 in0.0 mm 0.00 in/hr0.0 mm/hr 0.00 in0.0 mm
06:24 AM 31.8°F-0.1°C 26.6°F-3.0°C 81% 2.0 mph NW3.2 kmh NW 3.6 mph5.8 kmh 25.04 in848.0 mb 0.00 in0.0 mm 0.00 in/hr0.0 mm/hr 0.00 in0.0 mm
06:19 AM 31.8°F-0.1°C 26.4°F-3.1°C 80% 2.0 mph NW3.2 kmh NW 4.5 mph7.2 kmh 25.04 in848.0 mb 0.00 in0.0 mm 0.00 in/hr0.0 mm/hr 0.00 in0.0 mm
06:14 AM 32.0°F0.0°C 25.9°F-3.4°C 78% 1.0 mph NW1.6 kmh NW 3.6 mph5.8 kmh 25.04 in848.0 mb 0.00 in0.0 mm 0.00 in/hr0.0 mm/hr 0.00 in0.0 mm
06:09 AM 32.5°F0.3°C 26.1°F-3.3°C 77% Calm Calm 3.1 mph5.0 kmh 25.04 in848.0 mb 0.00 in0.0 mm 0.00 in/hr0.0 mm/hr 0.00 in0.0 mm
06:04 AM 33.3°F0.7°C 26.8°F-2.9°C 77% Calm Calm 3.6 mph5.8 kmh 25.04 in848.0 mb 0.00 in0.0 mm 0.00 in/hr0.0 mm/hr 0.00 in0.0 mm
05:59 AM 34.0°F1.1°C 27.9°F-2.3°C 78% Calm Calm 2.7 mph4.3 kmh 25.04 in848.0 mb 0.00 in0.0 mm 0.00 in/hr0.0 mm/hr 0.00 in0.0 mm
05:54 AM 33.8°F1.0°C 27.7°F-2.4°C 78% Calm Calm 3.6 mph5.8 kmh 25.04 in848.0 mb 0.00 in0.0 mm 0.00 in/hr0.0 mm/hr 0.00 in0.0 mm
05:49 AM 33.4°F0.8°C 27.0°F-2.8°C 77% Calm Calm -- 25.04 in848.0 mb 0.00 in0.0 mm 0.00 in/hr0.0 mm/hr 0.00 in0.0 mm
05:44 AM 32.9°F0.5°C 26.2°F-3.2°C 76% Calm Calm -- 25.04 in848.0 mb 0.00 in0.0 mm 0.00 in/hr0.0 mm/hr 0.00 in0.0 mm
05:39 AM 32.9°F0.5°C 25.9°F-3.4°C 75% Calm Calm -- 25.04 in848.0 mb 0.00 in0.0 mm 0.00 in/hr0.0 mm/hr 0.00 in0.0 mm
05:34 AM 32.9°F0.5°C 25.9°F-3.4°C 75% Calm Calm -- 25.04 in848.0 mb 0.00 in0.0 mm 0.00 in/hr0.0 mm/hr 0.00 in0.0 mm
05:29 AM 33.1°F0.6°C 26.1°F-3.3°C 75% 1.0 mph NW1.6 kmh NW 2.7 mph4.3 kmh 25.04 in848.0 mb 0.00 in0.0 mm 0.00 in/hr0.0 mm/hr 0.00 in0.0 mm
05:24 AM 33.3°F0.7°C 26.2°F-3.2°C 75% 2.0 mph NW3.2 kmh NW 5.4 mph8.7 kmh 25.04 in848.0 mb 0.00 in0.0 mm 0.00 in/hr0.0 mm/hr 0.00 in0.0 mm
05:19 AM 33.3°F0.7°C 25.9°F-3.4°C 74% 3.0 mph NW4.8 kmh NW 5.4 mph8.7 kmh 25.04 in848.0 mb 0.00 in0.0 mm 0.00 in/hr0.0 mm/hr 0.00 in0.0 mm
05:14 AM 33.8°F1.0°C 25.0°F-3.9°C 70% 3.0 mph NW4.8 kmh NW 6.7 mph10.8 kmh 25.04 in848.0 mb 0.00 in0.0 mm 0.00 in/hr0.0 mm/hr 0.00 in0.0 mm
05:09 AM 34.5°F1.4°C 25.3°F-3.7°C 69% 2.0 mph NW3.2 kmh NW 5.8 mph9.3 kmh 25.04 in848.0 mb 0.00 in0.0 mm 0.00 in/hr0.0 mm/hr 0.00 in0.0 mm
05:04 AM 34.9°F1.6°C 24.6°F-4.1°C 66% 4.0 mph NW6.4 kmh NW 5.4 mph8.7 kmh 25.04 in848.0 mb 0.00 in0.0 mm 0.00 in/hr0.0 mm/hr 0.00 in0.0 mm
04:59 AM 35.8°F2.1°C 24.1°F-4.4°C 62% 4.0 mph NW6.4 kmh NW 6.3 mph10.1 kmh 25.04 in848.0 mb 0.00 in0.0 mm 0.00 in/hr0.0 mm/hr 0.00 in0.0 mm
04:54 AM 36.3°F2.4°C 23.7°F-4.6°C 60% 4.0 mph NW6.4 kmh NW 6.9 mph11.1 kmh 25.04 in848.0 mb 0.00 in0.0 mm 0.00 in/hr0.0 mm/hr 0.00 in0.0 mm
04:49 AM 36.9°F2.7°C 23.9°F-4.5°C 59% 4.0 mph NW6.4 kmh NW 5.4 mph8.7 kmh 25.04 in848.0 mb 0.00 in0.0 mm 0.00 in/hr0.0 mm/hr 0.00 in0.0 mm
04:44 AM 36.7°F2.6°C 24.1°F-4.4°C 60% 3.0 mph N4.8 kmh N 6.7 mph10.8 kmh 25.04 in848.0 mb 0.00 in0.0 mm 0.00 in/hr0.0 mm/hr 0.00 in0.0 mm
04:39 AM 36.1°F2.3°C 24.4°F-4.2°C 62% Calm Calm 5.4 mph8.7 kmh 25.04 in848.0 mb 0.00 in0.0 mm 0.00 in/hr0.0 mm/hr 0.00 in0.0 mm
04:34 AM 35.8°F2.1°C 24.1°F-4.4°C 62% Calm Calm -- 25.04 in848.0 mb 0.00 in0.0 mm 0.00 in/hr0.0 mm/hr 0.00 in0.0 mm
04:29 AM 35.8°F2.1°C 23.7°F-4.6°C 61% Calm Calm -- 25.04 in848.0 mb 0.00 in0.0 mm 0.00 in/hr0.0 mm/hr 0.00 in0.0 mm
04:24 AM 36.0°F2.2°C 23.0°F-5.0°C 59% Calm Calm -- 25.04 in848.0 mb 0.00 in0.0 mm 0.00 in/hr0.0 mm/hr 0.00 in0.0 mm
04:19 AM 36.1°F2.3°C 23.2°F-4.9°C 59% Calm Calm -- 25.04 in848.0 mb 0.00 in0.0 mm 0.00 in/hr0.0 mm/hr 0.00 in0.0 mm
04:14 AM 36.0°F2.2°C 23.0°F-5.0°C 59% Calm Calm 3.1 mph5.0 kmh 25.04 in848.0 mb 0.00 in0.0 mm 0.00 in/hr0.0 mm/hr 0.00 in0.0 mm
04:09 AM 36.0°F2.2°C 23.0°F-5.0°C 59% 2.0 mph NE3.2 kmh NE 5.4 mph8.7 kmh 25.04 in848.0 mb 0.00 in0.0 mm 0.00 in/hr0.0 mm/hr 0.00 in0.0 mm
04:03 AM 36.0°F2.2°C 23.0°F-5.0°C 59% 2.0 mph NNE3.2 kmh NNE 5.4 mph8.7 kmh 25.04 in848.0 mb 0.00 in0.0 mm 0.00 in/hr0.0 mm/hr 0.00 in0.0 mm
03:58 AM 36.1°F2.3°C 23.2°F-4.9°C 59% 2.0 mph NNE3.2 kmh NNE 5.8 mph9.3 kmh 25.04 in848.0 mb 0.00 in0.0 mm 0.00 in/hr0.0 mm/hr 0.00 in0.0 mm
03:53 AM 36.0°F2.2°C 23.0°F-5.0°C 59% 2.0 mph NE3.2 kmh NE 4.9 mph7.9 kmh 25.04 in848.0 mb 0.00 in0.0 mm 0.00 in/hr0.0 mm/hr 0.00 in0.0 mm
03:48 AM 36.0°F2.2°C 23.0°F-5.0°C 59% 3.0 mph NNE4.8 kmh NNE 6.7 mph10.8 kmh 25.04 in848.0 mb 0.00 in0.0 mm 0.00 in/hr0.0 mm/hr 0.00 in0.0 mm
03:43 AM 35.8°F2.1°C 22.5°F-5.3°C 58% 4.0 mph N6.4 kmh N 6.9 mph11.1 kmh 25.04 in848.0 mb 0.00 in0.0 mm 0.00 in/hr0.0 mm/hr 0.00 in0.0 mm
03:38 AM 36.1°F2.3°C 22.5°F-5.3°C 57% 5.0 mph N8.0 kmh N 7.8 mph12.6 kmh 25.04 in848.0 mb 0.00 in0.0 mm 0.00 in/hr0.0 mm/hr 0.00 in0.0 mm
03:33 AM 36.1°F2.3°C 22.5°F-5.3°C 57% 5.0 mph N8.0 kmh N 9.2 mph14.8 kmh 25.04 in848.0 mb 0.00 in0.0 mm 0.00 in/hr0.0 mm/hr 0.00 in0.0 mm
03:28 AM 36.3°F2.4°C 22.1°F-5.5°C 56% 5.0 mph N8.0 kmh N 7.8 mph12.6 kmh 25.04 in848.0 mb 0.00 in0.0 mm 0.00 in/hr0.0 mm/hr 0.00 in0.0 mm
03:23 AM 36.3°F2.4°C 22.1°F-5.5°C 56% 5.0 mph N8.0 kmh N 8.3 mph13.4 kmh 25.04 in848.0 mb 0.00 in0.0 mm 0.00 in/hr0.0 mm/hr 0.00 in0.0 mm
03:18 AM 36.5°F2.5°C 22.3°F-5.4°C 56% 6.0 mph N9.7 kmh N 8.7 mph14.0 kmh 25.04 in848.0 mb 0.00 in0.0 mm 0.00 in/hr0.0 mm/hr 0.00 in0.0 mm
03:13 AM 36.5°F2.5°C 22.8°F-5.1°C 57% 6.0 mph N9.7 kmh N 9.2 mph14.8 kmh 25.04 in848.0 mb 0.00 in0.0 mm 0.00 in/hr0.0 mm/hr 0.00 in0.0 mm
03:08 AM 36.3°F2.4°C 23.7°F-4.6°C 60% 6.0 mph N9.7 kmh N 9.2 mph14.8 kmh 25.04 in848.0 mb 0.00 in0.0 mm 0.00 in/hr0.0 mm/hr 0.00 in0.0 mm
03:03 AM 35.8°F2.1°C 25.2°F-3.8°C 65% 3.0 mph N4.8 kmh N 7.8 mph12.6 kmh 25.04 in848.0 mb 0.00 in0.0 mm 0.00 in/hr0.0 mm/hr 0.00 in0.0 mm
02:58 AM 35.1°F1.7°C 25.2°F-3.8°C 67% 2.0 mph N3.2 kmh N 4.9 mph7.9 kmh 25.04 in848.0 mb 0.00 in0.0 mm 0.00 in/hr0.0 mm/hr 0.00 in0.0 mm
02:53 AM 34.5°F1.4°C 24.6°F-4.1°C 67% 1.0 mph N1.6 kmh N 3.6 mph5.8 kmh 25.04 in848.0 mb 0.00 in0.0 mm 0.00 in/hr0.0 mm/hr 0.00 in0.0 mm
02:48 AM 34.3°F1.3°C 24.6°F-4.1°C 67% 1.0 mph N1.6 kmh N 3.1 mph5.0 kmh 25.04 in848.0 mb 0.00 in0.0 mm 0.00 in/hr0.0 mm/hr 0.00 in0.0 mm
02:43 AM 34.9°F1.6°C 25.0°F-3.9°C 67% 3.0 mph N4.8 kmh N 4.5 mph7.2 kmh 25.04 in848.0 mb 0.00 in0.0 mm 0.00 in/hr0.0 mm/hr 0.00 in0.0 mm
02:38 AM 34.9°F1.6°C 25.3°F-3.7°C 68% 3.0 mph N4.8 kmh N 5.8 mph9.3 kmh 25.04 in848.0 mb 0.00 in0.0 mm 0.00 in/hr0.0 mm/hr 0.00 in0.0 mm
02:33 AM 34.3°F1.3°C 25.0°F-3.9°C 68% 3.0 mph N4.8 kmh N 4.9 mph7.9 kmh 25.04 in848.0 mb 0.00 in0.0 mm 0.00 in/hr0.0 mm/hr 0.00 in0.0 mm
02:28 AM 34.5°F1.4°C 25.3°F-3.7°C 69% 3.0 mph N4.8 kmh N 4.9 mph7.9 kmh 25.04 in848.0 mb 0.00 in0.0 mm 0.00 in/hr0.0 mm/hr 0.00 in0.0 mm
02:23 AM 34.2°F1.2°C 25.2°F-3.8°C 69% 3.0 mph N4.8 kmh N 4.9 mph7.9 kmh 25.04 in848.0 mb 0.00 in0.0 mm 0.00 in/hr0.0 mm/hr 0.00 in0.0 mm
02:18 AM 34.5°F1.4°C 25.7°F-3.5°C 70% 4.0 mph N6.4 kmh N 6.3 mph10.1 kmh 25.04 in848.0 mb 0.00 in0.0 mm 0.00 in/hr0.0 mm/hr 0.00 in0.0 mm
02:13 AM 34.9°F1.6°C 27.1°F-2.7°C 73% 4.0 mph N6.4 kmh N 6.9 mph11.1 kmh 25.04 in848.0 mb 0.00 in0.0 mm 0.00 in/hr0.0 mm/hr 0.00 in0.0 mm
02:08 AM 34.2°F1.2°C 27.1°F-2.7°C 75% 3.0 mph NE4.8 kmh NE 6.3 mph10.1 kmh 25.04 in848.0 mb 0.00 in0.0 mm 0.00 in/hr0.0 mm/hr 0.00 in0.0 mm
02:03 AM 33.3°F0.7°C 26.2°F-3.2°C 75% 2.0 mph E3.2 kmh E 4.5 mph7.2 kmh 25.04 in848.0 mb 0.00 in0.0 mm 0.00 in/hr0.0 mm/hr 0.00 in0.0 mm
01:58 AM 32.9°F0.5°C 25.9°F-3.4°C 75% 2.0 mph E3.2 kmh E 3.6 mph5.8 kmh 25.04 in848.0 mb 0.00 in0.0 mm 0.00 in/hr0.0 mm/hr 0.00 in0.0 mm
01:53 AM 32.7°F0.4°C 25.7°F-3.5°C 75% 2.0 mph E3.2 kmh E 3.6 mph5.8 kmh 25.04 in848.0 mb 0.00 in0.0 mm 0.00 in/hr0.0 mm/hr 0.00 in0.0 mm
01:48 AM 32.5°F0.3°C 25.5°F-3.6°C 75% 2.0 mph E3.2 kmh E 3.6 mph5.8 kmh 25.04 in848.0 mb 0.00 in0.0 mm 0.00 in/hr0.0 mm/hr 0.00 in0.0 mm
01:43 AM 32.7°F0.4°C 25.3°F-3.7°C 74% 3.0 mph E4.8 kmh E 4.5 mph7.2 kmh 25.04 in848.0 mb 0.00 in0.0 mm 0.00 in/hr0.0 mm/hr 0.00 in0.0 mm
01:38 AM 32.7°F0.4°C 25.0°F-3.9°C 73% 2.0 mph E3.2 kmh E 4.0 mph6.4 kmh 25.07 in849.0 mb 0.00 in0.0 mm 0.00 in/hr0.0 mm/hr 0.00 in0.0 mm
01:33 AM 32.5°F0.3°C 24.8°F-4.0°C 73% 2.0 mph E3.2 kmh E 3.6 mph5.8 kmh 25.07 in849.0 mb 0.00 in0.0 mm 0.00 in/hr0.0 mm/hr 0.00 in0.0 mm
01:28 AM 32.7°F0.4°C 24.6°F-4.1°C 72% 1.0 mph E1.6 kmh E 3.6 mph5.8 kmh 25.07 in849.0 mb 0.00 in0.0 mm 0.00 in/hr0.0 mm/hr 0.00 in0.0 mm
01:23 AM 33.1°F0.6°C 25.0°F-3.9°C 72% Calm Calm 3.1 mph5.0 kmh 25.07 in849.0 mb 0.00 in0.0 mm 0.00 in/hr0.0 mm/hr 0.00 in0.0 mm
01:18 AM 33.4°F0.8°C 25.3°F-3.7°C 72% Calm Calm -- 25.07 in849.0 mb 0.00 in0.0 mm 0.00 in/hr0.0 mm/hr 0.00 in0.0 mm
01:13 AM 33.4°F0.8°C 25.3°F-3.7°C 72% Calm Calm -- 25.07 in849.0 mb 0.00 in0.0 mm 0.00 in/hr0.0 mm/hr 0.00 in0.0 mm
01:08 AM 33.3°F0.7°C 25.5°F-3.6°C 73% Calm Calm -- 25.07 in849.0 mb 0.00 in0.0 mm 0.00 in/hr0.0 mm/hr 0.00 in0.0 mm
01:03 AM 33.1°F0.6°C 25.0°F-3.9°C 72% Calm Calm -- 25.07 in849.0 mb 0.00 in0.0 mm 0.00 in/hr0.0 mm/hr 0.00 in0.0 mm
12:58 AM 33.1°F0.6°C 25.0°F-3.9°C 72% Calm Calm -- 25.07 in849.0 mb 0.00 in0.0 mm 0.00 in/hr0.0 mm/hr 0.00 in0.0 mm
12:53 AM 33.1°F0.6°C 25.0°F-3.9°C 72% Calm Calm -- 25.07 in849.0 mb 0.00 in0.0 mm 0.00 in/hr0.0 mm/hr 0.00 in0.0 mm
12:48 AM 33.1°F0.6°C 25.0°F-3.9°C 72% 1.0 mph E1.6 kmh E 3.1 mph5.0 kmh 25.07 in849.0 mb 0.00 in0.0 mm 0.00 in/hr0.0 mm/hr 0.00 in0.0 mm
12:43 AM 33.3°F0.7°C 25.2°F-3.8°C 72% 1.0 mph E1.6 kmh E 3.1 mph5.0 kmh 25.07 in849.0 mb 0.00 in0.0 mm 0.00 in/hr0.0 mm/hr 0.00 in0.0 mm
12:38 AM 33.3°F0.7°C 25.2°F-3.8°C 72% Calm Calm 2.7 mph4.3 kmh 25.07 in849.0 mb 0.00 in0.0 mm 0.00 in/hr0.0 mm/hr 0.00 in0.0 mm
12:33 AM 33.4°F0.8°C 25.7°F-3.5°C 73% Calm Calm -- 25.07 in849.0 mb 0.00 in0.0 mm 0.00 in/hr0.0 mm/hr 0.00 in0.0 mm
12:28 AM 33.3°F0.7°C 25.5°F-3.6°C 73% Calm Calm 2.7 mph4.3 kmh 25.07 in849.0 mb 0.00 in0.0 mm 0.00 in/hr0.0 mm/hr 0.00 in0.0 mm
12:23 AM 33.1°F0.6°C 25.3°F-3.7°C 73% Calm Calm 2.7 mph4.3 kmh 25.07 in849.0 mb 0.00 in0.0 mm 0.00 in/hr0.0 mm/hr 0.00 in0.0 mm
12:18 AM 32.7°F0.4°C 25.3°F-3.7°C 74% Calm Calm -- 25.07 in849.0 mb 0.00 in0.0 mm 0.00 in/hr0.0 mm/hr 0.00 in0.0 mm
12:13 AM 32.7°F0.4°C 25.3°F-3.7°C 74% Calm Calm -- 25.07 in849.0 mb 0.00 in0.0 mm 0.00 in/hr0.0 mm/hr 0.00 in0.0 mm
12:08 AM 32.7°F0.4°C 25.0°F-3.9°C 73% Calm Calm 2.7 mph4.3 kmh 25.07 in849.0 mb 0.00 in0.0 mm 0.00 in/hr0.0 mm/hr 0.00 in0.0 mm
12:03 AM 33.1°F0.6°C 25.3°F-3.7°C 73% Calm Calm 2.7 mph4.3 kmh 25.07 in849.0 mb 0.00 in0.0 mm 0.00 in/hr0.0 mm/hr 0.00 in0.0 mm
WeatherForYou.com, LLC is not responsible for any damages or problems caused by this service. Current weather conditions are obtained from the closest station including government and personal stations which may have varying degrees of accuracy. Weather forecasts are derived from the NOAA NDFD and obtained through HAMweather's Aeris Weather API. Like all things, this site belongs to Jesus Christ... He just trusts me to maintain it. If you have any questions or comments email webmaster@weatherforyou.com

Copyright © 2014, WeatherForYou.com LLC. All rights reserved.